Time;durP1;ratioP1;P1;durP2;ratioP2;P2;SDS_P1;SDS_P2;PMS_P1;PMS_P2;Temp;Humidity;BMP_temperature;BMP_pressure;BME280_temperature;BME280_humidity;BME280_pressure;Samples;Min_cycle;Max_cycle;Signal;HPM_P1;HPM_P2
2022/11/28 00:01:26;;;;;;;11.23;7.13;;;;;;;4.81;78.60;100415.88;4989285;28;20573;-68
2022/11/28 00:03:53;;;;;;;12.17;7.20;;;;;;;4.76;78.61;100413.06;4987832;28;20208;-68
2022/11/28 00:06:19;;;;;;;10.10;7.03;;;;;;;4.73;78.66;100405.06;4988785;28;20209;-68
2022/11/28 00:08:46;;;;;;;12.90;6.97;;;;;;;4.70;78.75;100413.72;4987850;28;20307;-68
2022/11/28 00:11:14;;;;;;;11.87;7.03;;;;;;;4.66;78.97;100408.31;4982589;28;20204;-68
2022/11/28 00:13:41;;;;;;;11.43;7.63;;;;;;;4.59;79.21;100403.69;4989458;28;20197;-68
2022/11/28 00:16:16;;;;;;;11.60;7.20;;;;;;;4.48;79.44;100402.41;4992297;28;20201;-68
2022/11/28 00:18:43;;;;;;;12.90;7.37;;;;;;;4.35;80.03;100411.50;4989725;28;20220;-69
2022/11/28 00:21:12;;;;;;;12.80;7.87;;;;;;;4.34;80.45;100407.97;4991959;28;20201;-68
2022/11/28 00:23:39;;;;;;;11.27;6.80;;;;;;;4.17;80.38;100390.72;4988120;28;20337;-68
2022/11/28 00:26:12;;;;;;;11.13;7.17;;;;;;;4.23;81.05;100406.69;4986146;28;20244;-69
2022/11/28 00:28:38;;;;;;;10.67;7.20;;;;;;;4.18;81.16;100403.00;4985911;28;20216;-68
2022/11/28 00:31:05;;;;;;;12.03;6.60;;;;;;;4.25;80.69;100391.91;4988318;28;20263;-68
2022/11/28 00:33:32;;;;;;;12.00;7.43;;;;;;;4.37;80.31;100407.22;4985137;28;20661;-69
2022/11/28 00:36:01;;;;;;;10.13;6.63;;;;;;;4.35;79.92;100403.63;4985555;28;20336;-69
2022/11/28 00:38:28;;;;;;;11.50;7.90;;;;;;;4.30;80.13;100403.47;4983579;28;20229;-69
2022/11/28 00:41:15;;;;;;;12.10;7.60;;;;;;;4.28;80.16;100393.75;4982994;28;20292;-69
2022/11/28 00:43:43;;;;;;;11.33;7.33;;;;;;;4.22;80.30;100386.56;4983160;28;20598;-69
2022/11/28 00:46:11;;;;;;;10.43;6.83;;;;;;;4.29;80.28;100399.06;4979346;28;20207;-68
2022/11/28 00:48:37;;;;;;;11.00;7.37;;;;;;;4.29;80.19;100395.53;4983223;28;20226;-67
2022/11/28 00:51:18;;;;;;;11.23;6.90;;;;;;;4.23;80.25;100392.69;4983037;28;20200;-69
2022/11/28 00:53:46;;;;;;;12.63;7.57;;;;;;;4.22;79.95;100381.31;4982586;28;20729;-68
2022/11/28 00:56:16;;;;;;;14.17;7.37;;;;;;;4.30;80.08;100390.34;4982926;28;20208;-69
2022/11/28 00:58:43;;;;;;;11.60;7.17;;;;;;;4.30;79.99;100390.34;4983409;28;20780;-68
2022/11/28 01:01:17;;;;;;;13.33;7.00;;;;;;;4.36;79.77;100379.19;4983152;28;20251;-67
2022/11/28 01:03:45;;;;;;;12.47;7.53;;;;;;;4.49;79.24;100384.09;4981765;28;20421;-67
2022/11/28 01:06:12;;;;;;;13.17;7.50;;;;;;;4.56;79.08;100385.22;4982430;28;20292;-69
2022/11/28 01:08:38;;;;;;;11.13;7.43;;;;;;;4.64;78.49;100383.75;4982648;28;20292;-68
2022/11/28 01:11:11;;;;;;;10.03;6.50;;;;;;;4.52;78.68;100378.06;4981283;28;20578;-68
2022/11/28 01:13:39;;;;;;;11.03;7.23;;;;;;;4.41;78.85;100375.06;4981496;28;20199;-69
2022/11/28 01:16:06;;;;;;;9.73;6.77;;;;;;;4.36;79.39;100380.09;4982570;28;20747;-68
2022/11/28 01:18:33;;;;;;;12.03;8.03;;;;;;;4.47;79.29;100383.16;4983465;28;20217;-69
2022/11/28 01:20:59;;;;;;;11.40;7.23;;;;;;;4.39;79.29;100368.81;4981920;28;20206;-69
2022/11/28 01:23:26;;;;;;;13.43;7.77;;;;;;;4.45;78.82;100374.34;4981697;28;20427;-68
2022/11/28 01:25:52;;;;;;;11.07;7.17;;;;;;;4.44;78.88;100369.94;4979396;28;20677;-69
2022/11/28 01:28:19;;;;;;;10.63;7.00;;;;;;;4.42;78.97;100374.22;4981880;28;20220;-68
2022/11/28 01:30:45;;;;;;;10.30;6.87;;;;;;;4.45;78.94;100365.56;4981778;28;20197;-68
2022/11/28 01:33:11;;;;;;;12.70;7.67;;;;;;;4.36;79.15;100373.97;4980878;28;20651;-68
2022/11/28 01:35:38;;;;;;;11.97;7.57;;;;;;;4.32;79.28;100370.34;4981577;28;20198;-68
2022/11/28 01:38:04;;;;;;;12.63;7.40;;;;;;;4.39;79.37;100360.97;4982319;28;20497;-68
2022/11/28 01:40:30;;;;;;;12.50;7.17;;;;;;;4.47;78.75;100354.31;4980709;28;20207;-67
2022/11/28 01:42:57;;;;;;;12.97;8.00;;;;;;;4.34;78.93;100349.41;4983177;28;20449;-68
2022/11/28 01:45:29;;;;;;;12.20;7.73;;;;;;;4.33;79.21;100358.13;4980950;28;20228;-68
2022/11/28 01:48:01;;;;;;;11.43;6.97;;;;;;;4.38;79.20;100352.22;4982105;28;20315;-68
2022/11/28 01:50:30;;;;;;;12.60;7.17;;;;;;;4.37;79.13;100347.81;4982461;28;20200;-68
2022/11/28 01:53:00;;;;;;;11.13;7.00;;;;;;;4.26;79.44;100343.88;4980652;28;20218;-68
2022/11/28 01:55:32;;;;;;;12.13;7.30;;;;;;;4.19;79.77;100338.38;4980743;28;20614;-67
2022/11/28 01:57:58;;;;;;;10.73;7.13;;;;;;;4.18;80.22;100329.59;4981555;28;20229;-68
2022/11/28 02:00:25;;;;;;;10.77;7.33;;;;;;;4.22;79.82;100328.00;4980969;28;20209;-67
2022/11/28 02:02:59;;;;;;;12.40;7.90;;;;;;;4.19;80.17;100334.00;4982895;28;20216;-68
2022/11/28 02:05:25;;;;;;;11.47;7.33;;;;;;;4.17;80.15;100330.44;4979909;28;20719;-67
2022/11/28 02:07:52;;;;;;;11.37;7.63;;;;;;;4.39;79.11;100327.78;4980839;28;20290;-68
2022/11/28 02:10:26;;;;;;;12.10;7.80;;;;;;;4.34;78.86;100325.81;4981970;28;20213;-67
2022/11/28 02:13:06;;;;;;;11.80;7.13;;;;;;;4.47;78.77;100325.47;4977939;28;20843;-68
2022/11/28 02:16:09;;;;;;;15.20;8.17;;;;;;;4.42;78.51;100321.78;4981258;28;20221;-66
2022/11/28 02:18:41;;;;;;;13.37;7.83;;;;;;;4.36;79.09;100324.16;4950836;28;20212;-67
2022/11/28 02:21:24;;;;;;;10.83;7.03;;;;;;;4.26;79.31;100316.78;4977462;28;20196;-68
2022/11/28 02:24:18;;;;;;;12.17;8.03;;;;;;;4.22;80.21;100305.31;4980704;28;20201;-68
2022/11/28 02:27:00;;;;;;;12.20;7.90;;;;;;;4.28;79.60;100304.63;4980212;28;20260;-68
2022/11/28 02:30:10;;;;;;;11.60;7.63;;;;;;;4.36;79.02;100301.44;4978925;28;20637;-68
2022/11/28 02:32:55;;;;;;;11.10;7.23;;;;;;;4.29;78.83;100312.56;4978534;28;20259;-66
2022/11/28 02:35:33;;;;;;;12.47;7.67;;;;;;;4.26;79.13;100319.41;4978759;28;20200;-67
2022/11/28 02:38:18;;;;;;;12.63;8.03;;;;;;;4.41;78.53;100314.75;4963216;28;20228;-68
2022/11/28 02:40:59;;;;;;;11.90;7.57;;;;;;;4.34;78.76;100305.75;4979887;28;20284;-68
2022/11/28 02:44:36;;;;;;;12.73;7.73;;;;;;;4.43;78.01;100307.84;4979075;28;20201;-68
2022/11/28 02:47:17;;;;;;;11.50;6.83;;;;;;;4.36;78.58;100303.19;4892307;29;21387;-68
2022/11/28 02:49:56;;;;;;;13.07;7.60;;;;;;;4.30;78.89;100298.59;4902964;29;20297;-69
2022/11/28 02:52:51;;;;;;;14.23;8.03;;;;;;;4.36;78.36;100296.19;4968776;28;20232;-68
2022/11/28 02:55:19;;;;;;;14.30;8.17;;;;;;;4.35;77.98;100285.66;4978725;28;20678;-68
2022/11/28 02:57:48;;;;;;;11.83;7.53;;;;;;;4.49;77.84;100294.94;4980068;28;20321;-68
2022/11/28 03:00:26;;;;;;;14.33;7.70;;;;;;;4.40;78.08;100290.25;4979351;28;20735;-68
2022/11/28 03:03:07;;;;;;;13.53;8.13;;;;;;;4.38;77.86;100291.91;4980012;28;20211;-67
2022/11/28 03:05:50;;;;;;;13.93;8.00;;;;;;;4.20;78.50;100270.28;4979122;28;20225;-68
2022/11/28 03:08:28;;;;;;;12.87;7.73;;;;;;;4.30;78.25;100272.38;4978574;28;20329;-68
2022/11/28 03:10:55;;;;;;;10.60;7.10;;;;;;;4.28;78.17;100281.94;4978964;28;20205;-68
2022/11/28 03:13:43;;;;;;;13.03;8.17;;;;;;;4.27;78.26;100268.78;4977993;28;20205;-68
2022/11/28 03:16:21;;;;;;;12.33;7.57;;;;;;;4.24;78.61;100271.28;4977341;28;20263;-69
2022/11/28 03:19:10;;;;;;;13.43;7.87;;;;;;;4.24;78.59;100276.53;4981082;28;20665;-67
2022/11/28 03:21:46;;;;;;;13.80;8.00;;;;;;;4.16;78.67;100280.59;4973192;28;20285;-69
2022/11/28 03:24:23;;;;;;;15.27;8.20;;;;;;;4.15;79.11;100279.69;4979262;28;20308;-69
2022/11/28 03:27:06;;;;;;;12.97;8.00;;;;;;;4.14;78.91;100277.03;4978900;28;20201;-68
2022/11/28 03:29:40;;;;;;;11.47;7.70;;;;;;;4.14;78.93;100267.44;4980199;28;20240;-68
2022/11/28 03:32:17;;;;;;;14.63;8.80;;;;;;;4.16;79.02;100257.91;4979981;28;20248;-69
2022/11/28 03:34:48;;;;;;;13.40;8.67;;;;;;;4.18;78.86;100260.56;4979659;28;20201;-68
2022/11/28 03:37:26;;;;;;;16.53;8.80;;;;;;;4.23;78.91;100266.88;4976813;28;20304;-68
2022/11/28 03:39:58;;;;;;;13.67;8.40;;;;;;;4.21;78.84;100256.34;4980032;28;20359;-67
2022/11/28 03:42:28;;;;;;;12.70;8.33;;;;;;;4.25;78.75;100237.25;4978997;28;20208;-68
2022/11/28 03:45:01;;;;;;;13.60;8.40;;;;;;;4.30;78.21;100238.31;4981991;28;20722;-69
2022/11/28 03:47:33;;;;;;;13.13;8.10;;;;;;;4.25;78.05;100231.13;4981905;28;20728;-68
2022/11/28 03:50:06;;;;;;;14.63;8.10;;;;;;;4.21;78.40;100239.72;4981833;28;20267;-68
2022/11/28 03:52:40;;;;;;;15.97;9.20;;;;;;;4.12;79.08;100236.78;4982843;28;20265;-68
2022/11/28 03:55:16;;;;;;;15.40;9.13;;;;;;;4.14;78.37;100216.75;4983129;28;20205;-68
2022/11/28 03:57:50;;;;;;;15.17;9.00;;;;;;;4.12;78.89;100224.56;4983545;28;20232;-68
2022/11/28 04:00:16;;;;;;;16.33;8.93;;;;;;;4.04;79.58;100223.41;4982831;28;20740;-68
2022/11/28 04:02:54;;;;;;;15.17;8.57;;;;;;;4.10;79.57;100234.09;4982456;28;20293;-68
2022/11/28 04:05:30;;;;;;;17.00;8.77;;;;;;;4.16;79.02;100228.19;4984052;28;20220;-67
2022/11/28 04:08:17;;;;;;;16.37;9.63;;;;;;;4.17;78.99;100225.63;4982733;28;21532;-68
2022/11/28 04:10:47;;;;;;;16.53;9.10;;;;;;;4.11;78.99;100225.41;4982250;28;20204;-68
2022/11/28 04:13:30;;;;;;;18.03;9.20;;;;;;;4.15;78.94;100235.16;4982464;28;20740;-68
2022/11/28 04:16:06;;;;;;;13.17;8.10;;;;;;;4.03;79.40;100242.56;4982551;28;20307;-68
2022/11/28 04:18:51;;;;;;;17.37;9.47;;;;;;;4.00;79.79;100239.81;4988949;28;20220;-68
2022/11/28 04:21:22;;;;;;;16.97;9.20;;;;;;;4.10;79.62;100239.34;4985211;28;20280;-68
2022/11/28 04:23:51;;;;;;;16.23;9.00;;;;;;;4.03;79.68;100240.84;4982916;28;20197;-68
2022/11/28 04:26:25;;;;;;;17.13;9.80;;;;;;;3.91;80.07;100240.38;4982637;28;20225;-68
2022/11/28 04:28:54;;;;;;;17.87;9.77;;;;;;;3.88;80.57;100237.63;4982663;28;20216;-68
2022/11/28 04:31:23;;;;;;;16.93;9.70;;;;;;;3.97;80.31;100229.22;4988381;28;20224;-67
2022/11/28 04:33:55;;;;;;;17.77;9.90;;;;;;;3.92;80.35;100225.53;4984760;28;20688;-68
2022/11/28 04:36:24;;;;;;;15.10;8.93;;;;;;;3.90;80.37;100228.09;4988478;28;20291;-67
2022/11/28 04:38:55;;;;;;;15.77;9.60;;;;;;;3.98;80.70;100238.88;4984694;28;20316;-67
2022/11/28 04:41:36;;;;;;;14.97;9.77;;;;;;;3.94;80.47;100232.63;4983934;28;20201;-68
2022/11/28 04:44:18;;;;;;;14.83;8.10;;;;;;;4.04;79.83;100221.66;4980347;28;20204;-67
2022/11/28 04:46:52;;;;;;;16.43;8.10;;;;;;;4.16;79.20;100218.59;4984696;28;20198;-68
2022/11/28 04:49:18;;;;;;;15.70;9.10;;;;;;;4.05;79.77;100231.31;4981648;28;20211;-67
2022/11/28 04:52:22;;;;;;;13.07;8.10;;;;;;;4.00;79.97;100232.88;4985020;28;20232;-65
2022/11/28 04:55:15;;;;;;;14.97;8.83;;;;;;;3.92;80.26;100213.34;4987093;28;20203;-67
2022/11/28 04:57:49;;;;;;;13.37;8.23;;;;;;;3.70;80.16;100182.84;5006893;23;20242;-63
2022/11/28 05:00:22;;;;;;;15.00;8.77;;;;;;;3.87;80.58;100214.91;4966877;28;20677;-62
2022/11/28 05:02:51;;;;;;;17.53;9.53;;;;;;;3.87;80.67;100219.25;4968143;28;20824;-62
2022/11/28 05:05:21;;;;;;;14.37;8.47;;;;;;;3.81;81.07;100224.25;4970154;28;20263;-63
2022/11/28 05:07:47;;;;;;;14.80;8.30;;;;;;;3.87;80.38;100219.25;4970899;28;20193;-63
2022/11/28 05:10:15;;;;;;;14.83;8.27;;;;;;;4.00;80.12;100217.16;4971185;28;20257;-62
2022/11/28 05:12:41;;;;;;;16.07;8.80;;;;;;;3.98;80.08;100217.91;4970053;28;20617;-62
2022/11/28 05:15:09;;;;;;;15.30;9.07;;;;;;;3.94;80.10;100200.28;4970311;28;20342;-63
2022/11/28 05:17:35;;;;;;;14.33;8.10;;;;;;;4.00;80.02;100214.53;4969989;28;20201;-65
2022/11/28 05:20:07;;;;;;;15.83;8.70;;;;;;;3.94;80.42;100206.41;4971919;28;20289;-62
2022/11/28 05:22:34;;;;;;;13.30;9.00;;;;;;;3.96;80.29;100211.72;4969529;28;20281;-62
2022/11/28 05:25:00;;;;;;;16.30;8.77;;;;;;;3.91;80.38;100215.91;4971864;28;20213;-63
2022/11/28 05:27:26;;;;;;;16.57;8.60;;;;;;;3.95;80.10;100217.78;4968557;28;20732;-63
2022/11/28 05:29:53;;;;;;;15.67;8.73;;;;;;;3.96;80.35;100214.34;4972088;28;20221;-62
2022/11/28 05:32:19;;;;;;;15.43;8.60;;;;;;;3.90;80.20;100209.78;4968904;28;20202;-61
2022/11/28 05:34:46;;;;;;;16.53;8.97;;;;;;;3.87;80.41;100212.28;4970595;28;20201;-62
2022/11/28 05:37:12;;;;;;;18.70;8.83;;;;;;;3.91;80.16;100202.81;4970949;28;20255;-63
2022/11/28 05:39:38;;;;;;;20.03;9.17;;;;;;;3.84;80.59;100203.41;4968609;28;20485;-62
2022/11/28 05:42:05;;;;;;;16.13;8.43;;;;;;;3.83;80.71;100201.63;4969068;28;20721;-62
2022/11/28 05:44:31;;;;;;;15.27;8.23;;;;;;;3.84;81.26;100216.50;4970539;28;20657;-62
2022/11/28 05:46:58;;;;;;;17.77;9.37;;;;;;;3.78;81.41;100211.94;4969743;28;20240;-62
2022/11/28 05:49:25;;;;;;;14.80;8.80;;;;;;;3.77;81.57;100213.66;4967363;28;20224;-62
2022/11/28 05:51:51;;;;;;;18.00;9.47;;;;;;;3.88;81.25;100208.81;4969854;28;20236;-62
2022/11/28 05:54:17;;;;;;;14.47;9.07;;;;;;;3.90;81.67;100212.38;4971967;28;20206;-63
2022/11/28 05:56:44;;;;;;;17.67;9.73;;;;;;;3.99;80.54;100206.59;4967963;28;20198;-62
2022/11/28 05:59:11;;;;;;;19.87;10.40;;;;;;;4.06;79.93;100213.88;4971853;28;20229;-62
2022/11/28 06:01:38;;;;;;;20.87;8.93;;;;;;;4.08;79.55;100213.09;4969423;28;20208;-64
2022/11/28 06:04:04;;;;;;;20.63;9.90;;;;;;;3.98;80.17;100212.66;4969104;28;20677;-62
2022/11/28 06:06:33;;;;;;;16.37;9.03;;;;;;;3.91;80.16;100208.03;4970008;28;20221;-62
2022/11/28 06:08:59;;;;;;;20.47;9.20;;;;;;;3.91;80.54;100202.81;4969837;28;20225;-62
2022/11/28 06:11:28;;;;;;;18.33;9.10;;;;;;;3.93;80.18;100204.63;4952868;28;20273;-62
2022/11/28 06:13:55;;;;;;;21.20;9.23;;;;;;;3.93;80.36;100196.78;4970071;28;20249;-63
2022/11/28 06:16:24;;;;;;;16.77;8.60;;;;;;;3.96;80.22;100201.25;4967123;28;20258;-63
2022/11/28 06:18:53;;;;;;;20.73;9.40;;;;;;;3.90;80.49;100208.88;4968294;28;20214;-62
2022/11/28 06:21:20;;;;;;;21.50;9.40;;;;;;;3.88;80.97;100202.69;4971563;28;20205;-64
2022/11/28 06:23:47;;;;;;;19.30;9.83;;;;;;;3.89;80.52;100201.84;4969729;28;20202;-64
2022/11/28 06:26:16;;;;;;;19.60;9.53;;;;;;;3.84;80.94;100206.94;4970084;28;20217;-65
2022/11/28 06:28:42;;;;;;;21.87;9.60;;;;;;;3.74;81.43;100197.84;4969560;28;20236;-65
2022/11/28 06:31:14;;;;;;;16.13;8.53;;;;;;;3.80;81.43;100201.53;4968017;28;20204;-65
2022/11/28 06:33:41;;;;;;;16.10;9.80;;;;;;;3.80;81.02;100199.78;4969366;28;20259;-65
2022/11/28 06:36:09;;;;;;;15.33;8.93;;;;;;;3.83;81.07;100193.78;4971545;28;20365;-64
2022/11/28 06:38:35;;;;;;;17.70;9.50;;;;;;;3.85;81.05;100195.63;4967182;28;20217;-66
2022/11/28 06:41:05;;;;;;;13.93;8.77;;;;;;;3.75;81.64;100201.34;4964381;28;20205;-65
2022/11/28 06:43:31;;;;;;;20.13;9.03;;;;;;;3.73;81.41;100203.03;4969658;28;20197;-65
2022/11/28 06:45:58;;;;;;;15.07;8.73;;;;;;;3.73;81.54;100205.66;4961852;28;20322;-65
2022/11/28 06:48:25;;;;;;;17.30;8.87;;;;;;;3.77;81.32;100207.53;4962537;28;20776;-66
2022/11/28 06:50:51;;;;;;;15.90;9.03;;;;;;;3.72;81.61;100207.38;4966311;28;20270;-66
2022/11/28 06:53:18;;;;;;;17.90;9.23;;;;;;;3.74;81.27;100207.44;4969617;28;20288;-64
2022/11/28 06:55:45;;;;;;;16.37;9.47;;;;;;;3.75;81.54;100203.97;4969963;28;20224;-65
2022/11/28 06:58:11;;;;;;;22.47;9.40;;;;;;;3.85;81.20;100211.31;4967301;28;20324;-65
2022/11/28 07:00:38;;;;;;;17.93;9.03;;;;;;;3.79;81.42;100213.72;4963348;28;20288;-64
2022/11/28 07:03:04;;;;;;;18.17;9.77;;;;;;;3.88;80.90;100218.41;4965945;28;20347;-65
2022/11/28 07:05:30;;;;;;;17.43;9.17;;;;;;;3.91;80.65;100221.13;4970697;28;20308;-64
2022/11/28 07:07:57;;;;;;;16.97;9.47;;;;;;;3.88;80.78;100226.25;4970068;28;20292;-64
2022/11/28 07:10:26;;;;;;;18.60;9.13;;;;;;;3.79;81.10;100232.06;4945862;28;21335;-66
2022/11/28 07:12:57;;;;;;;17.47;9.63;;;;;;;3.77;81.66;100226.75;4962662;28;20284;-64
2022/11/28 07:15:30;;;;;;;17.90;9.57;;;;;;;3.87;80.77;100209.66;4947834;28;20260;-65
2022/11/28 07:17:56;;;;;;;22.17;9.30;;;;;;;4.00;80.15;100213.59;4962902;28;20336;-64
2022/11/28 07:20:23;;;;;;;17.70;9.03;;;;;;;3.89;80.63;100218.47;4966004;28;20252;-65
2022/11/28 07:22:49;;;;;;;23.80;10.10;;;;;;;3.81;81.28;100225.16;4966349;28;20197;-64
2022/11/28 07:25:16;;;;;;;16.93;9.60;;;;;;;3.76;81.94;100235.47;4966768;28;20225;-64
2022/11/28 07:27:42;;;;;;;17.50;8.73;;;;;;;3.77;82.10;100236.34;4966131;28;20410;-65
2022/11/28 07:30:09;;;;;;;21.20;11.43;;;;;;;3.79;81.74;100221.59;4965873;28;20709;-65
2022/11/28 07:32:39;;;;;;;23.33;11.00;;;;;;;3.87;82.08;100233.22;4963959;28;20239;-63
2022/11/28 07:35:07;;;;;;;17.47;9.97;;;;;;;4.02;81.26;100227.69;4963206;28;20575;-66
2022/11/28 07:37:35;;;;;;;19.50;10.23;;;;;;;4.22;80.26;100226.66;4966721;28;20742;-62
2022/11/28 07:40:01;;;;;;;21.33;9.60;;;;;;;4.27;79.70;100212.00;4966987;28;20267;-62
2022/11/28 07:42:27;;;;;;;19.83;9.40;;;;;;;4.41;79.20;100238.72;4972474;28;21811;-62
2022/11/28 07:44:54;;;;;;;19.37;9.67;;;;;;;4.45;78.61;100232.75;4966450;28;20670;-62
2022/11/28 07:47:20;;;;;;;15.97;9.67;;;;;;;4.44;78.92;100227.44;4967404;28;20757;-64
2022/11/28 07:49:47;;;;;;;25.63;11.13;;;;;;;4.47;79.21;100230.19;4967025;28;20602;-64
2022/11/28 07:52:13;;;;;;;17.53;9.43;;;;;;;4.52;78.97;100245.22;4966763;28;20201;-64
2022/11/28 07:54:40;;;;;;;21.97;10.57;;;;;;;4.54;78.61;100234.78;4966195;28;20198;-64
2022/11/28 07:57:06;;;;;;;16.47;10.03;;;;;;;4.54;78.67;100227.81;4970564;28;20193;-64
2022/11/28 07:59:38;;;;;;;19.97;9.77;;;;;;;4.64;78.46;100231.63;4971120;28;20581;-65
2022/11/28 08:02:05;;;;;;;18.53;9.73;;;;;;;4.71;78.14;100221.41;4972813;28;20210;-63
2022/11/28 08:04:32;;;;;;;16.07;9.87;;;;;;;4.74;78.13;100218.00;4969716;28;20296;-63
2022/11/28 08:06:58;;;;;;;19.37;10.13;;;;;;;4.80;77.70;100228.69;4972103;28;20226;-63
2022/11/28 08:09:25;;;;;;;19.40;9.60;;;;;;;4.76;77.85;100218.94;4972417;28;20217;-63
2022/11/28 08:11:51;;;;;;;15.67;9.23;;;;;;;4.79;77.72;100226.00;4970811;28;20197;-64
2022/11/28 08:14:17;;;;;;;16.00;9.43;;;;;;;4.81;77.72;100217.38;4968030;28;20680;-62
2022/11/28 08:16:43;;;;;;;16.60;9.33;;;;;;;4.86;77.36;100212.28;4965303;28;20292;-64
2022/11/28 08:19:10;;;;;;;17.77;9.23;;;;;;;4.91;77.28;100216.84;4966483;28;20776;-64
2022/11/28 08:21:37;;;;;;;18.60;9.83;;;;;;;4.90;77.60;100217.69;4964112;28;20290;-66
2022/11/28 08:24:04;;;;;;;15.80;9.47;;;;;;;5.04;76.38;100205.00;4971016;28;20202;-63
2022/11/28 08:26:31;;;;;;;21.03;9.20;;;;;;;5.16;76.58;100213.25;4970420;28;20233;-63
2022/11/28 08:28:59;;;;;;;17.27;9.70;;;;;;;5.07;76.48;100193.72;4970933;28;20297;-64
2022/11/28 08:31:32;;;;;;;18.27;10.33;;;;;;;5.21;76.34;100195.94;4972258;28;20209;-64
2022/11/28 08:34:00;;;;;;;16.83;9.10;;;;;;;5.23;76.31;100204.75;4971982;28;20256;-62
2022/11/28 08:36:27;;;;;;;16.23;8.87;;;;;;;5.24;76.62;100206.53;4973410;28;20202;-64
2022/11/28 08:38:55;;;;;;;16.37;9.53;;;;;;;5.33;75.58;100209.44;4969078;28;20219;-64
2022/11/28 08:41:41;;;;;;;18.40;9.63;;;;;;;5.35;75.63;100215.66;4973018;28;20551;-64
2022/11/28 08:44:07;;;;;;;19.67;10.10;;;;;;;5.50;74.61;100215.22;4972595;28;20747;-63
2022/11/28 08:46:35;;;;;;;16.03;9.10;;;;;;;5.66;74.63;100219.22;4966976;28;20276;-66
2022/11/28 08:49:02;;;;;;;19.20;9.67;;;;;;;5.61;75.12;100212.94;4966960;28;20274;-63
2022/11/28 08:51:30;;;;;;;17.43;9.10;;;;;;;5.65;75.01;100225.31;4972166;28;20218;-63
2022/11/28 08:53:56;;;;;;;17.10;9.33;;;;;;;5.72;74.95;100216.78;4970957;28;20206;-64
2022/11/28 08:56:25;;;;;;;16.33;9.30;;;;;;;5.84;74.07;100221.50;4973938;28;20328;-65
2022/11/28 08:58:51;;;;;;;16.13;9.17;;;;;;;5.92;74.27;100223.53;4959860;28;20923;-63
2022/11/28 09:01:20;;;;;;;15.77;9.57;;;;;;;5.94;73.75;100221.81;4954002;28;20225;-64
2022/11/28 09:03:48;;;;;;;14.53;8.60;;;;;;;6.00;73.37;100213.22;4970086;28;20680;-65
2022/11/28 09:06:15;;;;;;;20.90;9.63;;;;;;;6.04;73.30;100216.88;4963387;28;20248;-64
2022/11/28 09:08:42;;;;;;;15.97;9.20;;;;;;;6.01;73.57;100208.88;4971830;28;20225;-65
2022/11/28 09:11:12;;;;;;;15.80;9.33;;;;;;;6.20;72.84;100209.44;4968254;28;20219;-63
2022/11/28 09:13:39;;;;;;;14.77;9.53;;;;;;;6.10;72.77;100214.41;4970515;28;20230;-64
2022/11/28 09:16:07;;;;;;;15.90;8.97;;;;;;;6.04;72.83;100222.13;4968165;28;20333;-62
2022/11/28 09:18:33;;;;;;;19.90;9.43;;;;;;;5.98;73.68;100214.91;4973467;28;20644;-61
2022/11/28 09:21:03;;;;;;;15.57;9.20;;;;;;;6.03;73.39;100213.34;4971082;28;20279;-65
2022/11/28 09:23:30;;;;;;;16.43;9.03;;;;;;;6.02;72.93;100211.56;4969788;28;20469;-64
2022/11/28 09:25:56;;;;;;;17.50;9.20;;;;;;;6.12;72.75;100218.84;4975551;28;20251;-65
2022/11/28 09:28:27;;;;;;;15.80;8.70;;;;;;;6.15;72.54;100221.56;4976458;28;20224;-64
2022/11/28 09:31:03;;;;;;;17.37;8.73;;;;;;;6.18;73.19;100223.38;4970057;28;20581;-64
2022/11/28 09:33:30;;;;;;;13.30;9.37;;;;;;;6.21;72.81;100221.72;4972230;28;20258;-64
2022/11/28 09:35:57;;;;;;;17.87;9.60;;;;;;;6.24;72.52;100218.31;4971371;28;20240;-64
2022/11/28 09:38:25;;;;;;;14.47;8.63;;;;;;;6.28;72.52;100213.16;4972822;28;20279;-64
2022/11/28 09:40:51;;;;;;;14.30;8.80;;;;;;;6.13;72.33;100203.97;4970899;28;20666;-64
2022/11/28 09:43:36;;;;;;;13.50;8.27;;;;;;;6.25;72.54;100217.44;4970724;28;20204;-63
2022/11/28 09:46:13;;;;;;;13.30;8.17;;;;;;;6.43;71.97;100217.09;4974373;28;20251;-64
2022/11/28 09:48:54;;;;;;;13.33;8.23;;;;;;;6.60;71.24;100215.78;4971656;28;20223;-63
2022/11/28 09:51:33;;;;;;;14.07;8.63;;;;;;;6.60;71.04;100215.78;4969945;28;20219;-64
2022/11/28 09:54:11;;;;;;;16.43;8.80;;;;;;;6.58;71.29;100215.75;4971176;28;20212;-65
2022/11/28 09:56:38;;;;;;;17.17;9.57;;;;;;;6.65;72.01;100216.78;4969948;28;20774;-64
2022/11/28 09:59:23;;;;;;;21.50;9.40;;;;;;;6.74;70.93;100214.38;4973205;28;20290;-65
2022/11/28 10:02:01;;;;;;;14.73;8.80;;;;;;;6.80;70.87;100214.53;4973894;28;20747;-65
2022/11/28 10:04:27;;;;;;;13.13;9.33;;;;;;;6.72;71.00;100212.56;4955955;28;20290;-64
2022/11/28 10:07:05;;;;;;;13.07;8.57;;;;;;;6.74;71.20;100205.59;4952907;28;20808;-66
2022/11/28 10:09:59;;;;;;;13.43;8.63;;;;;;;6.85;70.67;100205.03;4969582;28;20288;-62
2022/11/28 10:12:31;;;;;;;12.60;8.30;;;;;;;6.93;70.76;100199.06;4967872;28;20683;-63
2022/11/28 10:15:09;;;;;;;15.53;8.80;;;;;;;7.01;70.55;100193.16;4978604;28;20530;-62
2022/11/28 10:17:54;;;;;;;13.53;8.27;;;;;;;7.12;69.88;100196.03;4966784;28;20708;-64
2022/11/28 10:20:27;;;;;;;15.20;8.80;;;;;;;7.20;69.90;100197.09;4977829;28;20213;-64
2022/11/28 10:23:16;;;;;;;15.87;8.90;;;;;;;7.33;70.03;100199.19;4975860;28;20258;-64
2022/11/28 10:25:49;;;;;;;18.33;8.80;;;;;;;7.42;70.10;100199.38;4967324;28;20636;-65
2022/11/28 10:28:29;;;;;;;13.43;8.97;;;;;;;7.31;69.80;100200.88;4967969;28;20315;-63
2022/11/28 10:31:35;;;;;;;14.00;8.13;;;;;;;7.36;69.33;100201.88;4974987;28;20907;-64
2022/11/28 10:34:10;;;;;;;13.70;8.37;;;;;;;7.26;70.08;100199.00;4964985;28;20251;-63
2022/11/28 10:37:19;;;;;;;14.63;8.70;;;;;;;7.22;70.17;100195.41;4972503;28;20208;-63
2022/11/28 10:39:46;;;;;;;14.03;8.40;;;;;;;7.21;70.72;100198.91;4959241;28;20348;-63
2022/11/28 10:42:29;;;;;;;14.93;8.80;;;;;;;7.18;70.97;100204.97;4970306;28;20272;-65
2022/11/28 10:45:01;;;;;;;15.03;9.13;;;;;;;7.18;72.09;100190.91;4970521;28;22623;-64
2022/11/28 10:47:43;;;;;;;15.30;9.10;;;;;;;7.17;72.44;100192.66;4970463;28;20663;-64
2022/11/28 10:50:18;;;;;;;14.53;8.63;;;;;;;7.09;73.89;100188.06;4972296;28;20292;-64
2022/11/28 10:53:07;;;;;;;14.00;9.17;;;;;;;7.11;74.26;100186.34;4967402;28;20227;-64
2022/11/28 10:56:10;;;;;;;14.23;8.97;;;;;;;7.09;74.84;100181.03;4969275;28;20342;-64
2022/11/28 10:58:57;;;;;;;13.27;8.77;;;;;;;7.05;75.45;100173.94;4998474;23;20226;-69
2022/11/28 11:01:30;;;;;;;14.90;9.07;;;;;;;7.11;75.46;100181.09;4985450;28;20232;-69
2022/11/28 11:03:56;;;;;;;13.67;8.20;;;;;;;7.20;74.76;100191.81;4987905;28;20247;-68
2022/11/28 11:06:26;;;;;;;14.30;8.87;;;;;;;7.12;75.14;100180.22;4993571;28;20220;-68
2022/11/28 11:09:07;;;;;;;13.03;9.40;;;;;;;7.16;76.04;100182.06;4982408;28;20606;-68
2022/11/28 11:11:39;;;;;;;13.43;8.47;;;;;;;7.22;75.81;100175.22;4989601;28;20408;-66
2022/11/28 11:14:09;;;;;;;12.97;8.63;;;;;;;7.37;76.11;100179.94;4988293;28;20698;-68
2022/11/28 11:16:47;;;;;;;15.63;9.57;;;;;;;7.46;75.11;100179.25;4983705;28;20213;-66
2022/11/28 11:19:38;;;;;;;19.70;11.73;;;;;;;7.54;74.88;100172.41;4986727;28;20228;-68
2022/11/28 11:22:17;;;;;;;16.13;9.30;;;;;;;7.76;71.60;100179.06;4982314;28;20287;-65
2022/11/28 11:25:03;;;;;;;20.57;11.90;;;;;;;7.89;71.22;100177.56;4985479;28;20208;-67
2022/11/28 11:27:30;;;;;;;15.87;9.57;;;;;;;7.80;72.06;100180.88;4986172;28;20271;-66
2022/11/28 11:29:57;;;;;;;15.40;9.80;;;;;;;7.68;73.38;100167.47;4988154;28;20225;-66
2022/11/28 11:32:29;;;;;;;16.87;9.63;;;;;;;7.63;73.45;100183.19;4986592;28;20272;-67
2022/11/28 11:34:58;;;;;;;17.20;9.90;;;;;;;7.55;73.12;100171.56;4987922;28;20658;-68
2022/11/28 11:37:27;;;;;;;17.50;9.73;;;;;;;7.55;72.87;100167.19;4988911;28;20199;-68
2022/11/28 11:39:54;;;;;;;16.20;9.23;;;;;;;7.52;72.89;100164.47;4988560;28;20251;-67
2022/11/28 11:42:31;;;;;;;14.63;9.80;;;;;;;7.46;73.63;100168.72;4987223;28;20296;-67
2022/11/28 11:45:23;;;;;;;15.63;9.83;;;;;;;7.42;74.33;100165.13;4988884;28;20235;-67
2022/11/28 11:47:49;;;;;;;14.97;8.90;;;;;;;7.33;74.65;100164.94;4985705;28;20597;-68